NCAR-RAP Real-Time Weather Data

Output produced by METARs form (01 October 2022  05:33 UTC)
found at http://weather.rap.ucar.edu/surface/
 
VVTS 010500Z 26008KT 220V310 9999 BKN017 31/25 Q1009 NOSIG
VVTS 010430Z 24007KT 210V270 9999 BKN017 31/25 Q1009 NOSIG
VVTS 010400Z 26009KT 230V290 9999 BKN017 31/26 Q1010 NOSIG
VVTS 010330Z 26005KT 210V310 9999 BKN017 31/26 Q1010 NOSIG
VVTS 010300Z 25009KT 210V290 9999 BKN017 30/24 Q1011 NOSIG
VVTS 010230Z 25008KT 220V280 9999 SCT017 SCT050 30/24 Q1011 NOSIG
VVTS 010200Z 24005KT 200V280 9999 SCT017 SCT050 29/25 Q1011 NOSIG
VVTS 010130Z 24007KT 210V280 9999 BKN017 29/25 Q1010 NOSIG
VVTS 010100Z 22006KT 180V270 9999 BKN017 28/26 Q1010 NOSIG
VVTS 010030Z VRB03KT 9999 BKN015 28/26 Q1010 NOSIG
VVTS 010000Z 12003KT 9999 BKN015 27/25 Q1010 NOSIG
VVTS 302330Z VRB02KT 9999 FEW017 BKN050 27/25 Q1009 NOSIG
VVTS 302300Z VRB02KT 9999 FEW017 SCT050 26/25 Q1009 NOSIG
VVTS 302230Z VRB01KT 9999 FEW017 SCT050 26/25 Q1009 NOSIG
VVTS 302200Z VRB01KT 9999 FEW017 SCT050 26/26 Q1008 NOSIG
VVTS 302130Z 13002KT 9999 FEW017 SCT050 26/25 Q1008 NOSIG
VVTS 302100Z 00000KT 9999 FEW017 SCT050 26/25 Q1008 NOSIG
VVTS 302030Z 18003KT 9999 FEW017 SCT050 26/26 Q1008 NOSIG
VVTS 302000Z 17003KT 9999 ////// 26/26 Q1008 NOSIG
VVTS 301930Z 21003KT 8000 FEW020 SCT050 27/26 Q1009 NOSIG
VVTS 301900Z VRB03KT 8000 FEW020 SCT050 27/26 Q1009 NOSIG
VVTS 301830Z 13003KT 8000 FEW020 SCT050 27/26 Q1009 NOSIG
VVTS 301800Z 08002KT 9999 FEW017 SCT050 27/26 Q1009 NOSIG